createdAt,value
2018-06-08T00:00:56.813Z,97318.80
2018-06-08T00:03:56.598Z,97328.32
2018-06-08T00:06:32.303Z,97308.81
2018-06-08T00:09:41.008Z,97259.59
2018-06-08T00:12:20.159Z,97263.66
2018-06-08T00:14:53.624Z,97249.30
2018-06-08T00:17:24.922Z,97265.08
2018-06-08T00:19:57.893Z,97277.41
2018-06-08T00:22:54.927Z,97281.54
2018-06-08T00:25:39.755Z,97275.32
2018-06-08T00:28:13.469Z,97273.30
2018-06-08T00:30:44.785Z,97259.98
2018-06-08T00:33:15.975Z,97245.68
2018-06-08T00:35:47.152Z,97253.12
2018-06-08T00:38:39.810Z,97255.00
2018-06-08T00:41:17.139Z,97243.62
2018-06-08T00:43:48.295Z,97215.63
2018-06-08T00:46:20.124Z,97211.77
2018-06-08T00:48:51.662Z,97199.31
2018-06-08T00:51:23.307Z,97212.39
2018-06-08T00:53:54.552Z,97211.70
2018-06-08T00:56:36.330Z,97221.55
2018-06-08T00:59:07.612Z,97215.38
2018-06-08T01:01:39.624Z,97217.88
2018-06-08T01:04:10.769Z,97222.74
2018-06-08T01:06:42.296Z,97229.97
2018-06-08T01:09:13.376Z,97241.28
2018-06-08T01:11:44.809Z,97241.62
2018-06-08T01:14:15.895Z,97234.87
2018-06-08T01:16:47.148Z,97231.66
2018-06-08T01:19:18.263Z,97229.69
2018-06-08T01:21:49.414Z,97217.75
2018-06-08T01:24:20.508Z,97224.88
2018-06-08T01:26:51.663Z,97221.34
2018-06-08T01:29:22.931Z,97234.42
2018-06-08T01:31:54.160Z,97239.15
2018-06-08T01:34:25.321Z,97228.91
2018-06-08T01:36:56.523Z,97221.09
2018-06-08T01:39:27.916Z,97212.95
2018-06-08T01:41:59.318Z,97222.16
2018-06-08T01:45:04.326Z,97216.28
2018-06-08T01:47:38.559Z,97210.11
2018-06-08T01:50:19.944Z,97217.89
2018-06-08T01:52:53.546Z,97227.42
2018-06-08T01:55:24.875Z,97219.03
2018-06-08T01:57:56.163Z,97225.73
2018-06-08T02:00:28.058Z,97224.41
2018-06-08T02:02:59.256Z,97219.90
2018-06-08T02:05:30.972Z,97220.56
2018-06-08T02:08:15.876Z,97218.46
2018-06-08T02:10:47.924Z,97201.06
2018-06-08T02:13:19.129Z,97213.53
2018-06-08T02:15:50.306Z,97217.36
2018-06-08T02:18:21.807Z,97201.93
2018-06-08T02:20:52.980Z,97197.49
2018-06-08T02:23:24.283Z,97197.48
2018-06-08T02:25:55.312Z,97201.02
2018-06-08T02:28:26.404Z,97199.21
2018-06-08T02:30:57.859Z,97185.69
2018-06-08T02:33:29.478Z,97200.03
2018-06-08T02:36:00.687Z,97192.72
2018-06-08T02:38:32.084Z,97184.82
2018-06-08T02:41:03.497Z,97181.61
2018-06-08T02:43:34.867Z,97162.86
2018-06-08T02:46:06.013Z,97159.05
2018-06-08T02:48:37.574Z,97147.16
2018-06-08T02:51:08.787Z,97145.56
2018-06-08T02:53:40.167Z,97139.85
2018-06-08T02:56:11.308Z,97126.66
2018-06-08T02:58:42.600Z,97110.03
2018-06-08T03:01:13.885Z,97102.48
2018-06-08T03:03:45.058Z,97102.83
2018-06-08T03:06:16.101Z,97109.95
2018-06-08T03:08:47.447Z,97109.45
2018-06-08T03:11:18.478Z,97107.03
2018-06-08T03:13:49.728Z,97106.78
2018-06-08T03:16:21.015Z,97101.78
2018-06-08T03:18:52.035Z,97100.62
2018-06-08T03:21:22.999Z,97101.30
2018-06-08T03:23:54.059Z,97104.97
2018-06-08T03:26:25.263Z,97094.22
2018-06-08T03:28:56.342Z,97094.86
2018-06-08T03:31:27.909Z,97101.06
2018-06-08T03:33:59.316Z,97113.08
2018-06-08T03:36:30.967Z,97125.16
2018-06-08T03:39:02.190Z,97138.73
2018-06-08T03:41:33.615Z,97141.49
2018-06-08T03:44:04.950Z,97144.84
2018-06-08T03:46:36.208Z,97153.80
2018-06-08T03:49:07.485Z,97150.03
2018-06-08T03:51:38.750Z,97146.14
2018-06-08T03:54:10.001Z,97151.15
2018-06-08T03:56:41.260Z,97160.85
2018-06-08T03:59:12.464Z,97165.31
2018-06-08T04:01:43.748Z,97164.17
2018-06-08T04:04:14.995Z,97157.19
2018-06-08T04:06:46.305Z,97152.36
2018-06-08T04:09:17.879Z,97147.00
2018-06-08T04:11:49.167Z,97145.42
2018-06-08T04:14:20.390Z,97149.52
2018-06-08T04:16:51.567Z,97149.52
2018-06-08T04:19:22.864Z,97154.34
2018-06-08T04:21:54.217Z,97156.83
2018-06-08T04:24:29.091Z,97158.72
2018-06-08T04:27:01.557Z,97167.67
2018-06-08T04:29:33.016Z,97167.39
2018-06-08T04:32:05.522Z,97168.44
2018-06-08T04:34:37.117Z,97161.62
2018-06-08T04:37:08.472Z,97157.78
2018-06-08T04:39:40.884Z,97153.69
2018-06-08T04:42:12.274Z,97161.25
2018-06-08T04:44:43.568Z,97178.73
2018-06-08T04:47:17.277Z,97182.98
2018-06-08T04:49:49.326Z,97194.69
2018-06-08T04:52:20.611Z,97193.88
2018-06-08T04:54:52.164Z,97190.00
2018-06-08T04:57:27.892Z,97186.67
2018-06-08T04:59:59.698Z,97187.36
2018-06-08T05:02:31.122Z,97189.25
2018-06-08T05:05:10.552Z,97185.42
2018-06-08T05:07:42.930Z,97186.53
2018-06-08T05:10:19.000Z,97184.88
2018-06-08T05:12:50.075Z,97188.87
2018-06-08T05:15:21.438Z,97176.93
2018-06-08T05:17:53.392Z,97177.12
2018-06-08T05:20:25.975Z,97187.25
2018-06-08T05:22:57.598Z,97187.02
2018-06-08T05:25:28.808Z,97194.06
2018-06-08T05:28:00.014Z,97198.42
2018-06-08T05:30:31.505Z,97196.76
2018-06-08T05:33:02.691Z,97197.20
2018-06-08T05:35:33.882Z,97202.58
2018-06-08T05:38:05.205Z,97184.61
2018-06-08T05:40:36.502Z,97185.31
2018-06-08T05:43:07.829Z,97177.04
2018-06-08T05:45:39.061Z,97177.94
2018-06-08T05:48:10.301Z,97186.06
2018-06-08T05:50:41.591Z,97183.41
2018-06-08T05:53:12.975Z,97182.98
2018-06-08T05:55:44.122Z,97189.50
2018-06-08T05:58:15.389Z,97187.52
2018-06-08T06:00:46.652Z,97188.30
2018-06-08T06:03:17.774Z,97190.39
2018-06-08T06:05:48.935Z,97195.39
2018-06-08T06:08:19.875Z,97199.98
2018-06-08T06:10:52.700Z,97200.23
2018-06-08T06:13:24.395Z,97192.56
2018-06-08T06:15:55.665Z,97194.31
2018-06-08T06:18:27.342Z,97199.87
2018-06-08T06:21:33.338Z,97194.23
2018-06-08T06:24:27.470Z,97195.07
2018-06-08T06:27:06.304Z,97196.30
2018-06-08T06:29:37.593Z,97194.58
2018-06-08T06:32:08.873Z,97192.92
2018-06-08T06:34:40.034Z,97186.00
2018-06-08T06:37:11.171Z,97187.54
2018-06-08T06:39:42.461Z,97182.45
2018-06-08T06:42:13.624Z,97180.09
2018-06-08T06:44:45.078Z,97178.13
2018-06-08T06:47:17.528Z,97179.09
2018-06-08T06:49:49.679Z,97185.77
2018-06-08T06:52:21.052Z,97185.73
2018-06-08T06:54:52.258Z,97179.39
2018-06-08T06:57:23.514Z,97180.09
2018-06-08T06:59:54.793Z,97182.25
2018-06-08T07:02:26.280Z,97179.63
2018-06-08T07:04:57.710Z,97175.02
2018-06-08T07:07:29.381Z,97182.52
2018-06-08T07:10:00.694Z,97187.34
2018-06-08T07:12:32.951Z,97186.70
2018-06-08T07:15:04.185Z,97179.69
2018-06-08T07:17:36.731Z,97181.84
2018-06-08T07:20:07.984Z,97170.48
2018-06-08T07:22:39.492Z,97182.62
2018-06-08T07:25:10.694Z,97180.87
2018-06-08T07:27:44.442Z,97190.84
2018-06-08T07:30:18.219Z,97190.55
2018-06-08T07:32:49.736Z,97185.14
2018-06-08T07:35:21.136Z,97191.59
2018-06-08T07:37:52.815Z,97190.92
2018-06-08T07:40:24.448Z,97195.33
2018-06-08T07:42:55.901Z,97195.77
2018-06-08T07:45:27.832Z,97204.64
2018-06-08T07:47:59.126Z,97203.27
2018-06-08T07:50:41.157Z,97201.61
2018-06-08T07:53:16.472Z,97193.05
2018-06-08T07:58:49.959Z,97187.45
2018-06-08T08:01:21.083Z,97189.50
2018-06-08T08:03:52.195Z,97190.08
2018-06-08T08:06:23.306Z,97193.84
2018-06-08T08:08:54.741Z,97196.25
2018-06-08T08:11:25.918Z,97189.92
2018-06-08T08:13:57.101Z,97179.84
2018-06-08T08:16:28.406Z,97179.45
2018-06-08T08:18:59.515Z,97173.75
2018-06-08T08:21:31.058Z,97171.50
2018-06-08T08:24:02.336Z,97171.55
2018-06-08T08:26:33.460Z,97172.09
2018-06-08T08:29:04.914Z,97176.81
2018-06-08T08:31:36.092Z,97183.03
2018-06-08T08:34:07.395Z,97171.94
2018-06-08T08:36:38.426Z,97173.20
2018-06-08T08:39:10.402Z,97172.94
2018-06-08T08:41:41.527Z,97175.69
2018-06-08T08:44:12.827Z,97174.66
2018-06-08T08:46:44.054Z,97175.77
2018-06-08T08:49:15.179Z,97175.44
2018-06-08T08:51:46.733Z,97172.72
2018-06-08T08:54:18.105Z,97175.30
2018-06-08T08:56:49.137Z,97170.83
2018-06-08T08:59:20.661Z,97176.62
2018-06-08T09:01:52.337Z,97179.08
2018-06-08T09:04:23.840Z,97182.52
2018-06-08T09:06:55.092Z,97179.08
2018-06-08T09:09:26.292Z,97179.84
2018-06-08T09:11:57.627Z,97177.61
2018-06-08T09:14:29.155Z,97175.71
2018-06-08T09:17:00.266Z,97167.02
2018-06-08T09:19:31.927Z,97172.25
2018-06-08T09:22:03.044Z,97169.45
2018-06-08T09:24:34.362Z,97176.82
2018-06-08T09:27:05.825Z,97170.72
2018-06-08T09:29:36.914Z,97166.45
2018-06-08T09:32:09.108Z,97174.29
2018-06-08T09:34:40.215Z,97165.12
2018-06-08T09:37:11.313Z,97165.66
2018-06-08T09:39:42.516Z,97172.22
2018-06-08T09:42:13.484Z,97176.70
2018-06-08T09:44:45.191Z,97164.48
2018-06-08T09:47:16.616Z,97165.00
2018-06-08T09:49:47.751Z,97161.06
2018-06-08T09:52:19.212Z,97164.62
2018-06-08T09:54:50.527Z,97156.22
2018-06-08T09:57:21.595Z,97148.08
2018-06-08T09:59:52.729Z,97145.03
2018-06-08T10:02:23.779Z,97145.93
2018-06-08T10:04:55.299Z,97125.76
2018-06-08T10:07:26.244Z,97130.22
2018-06-08T10:09:57.407Z,97130.20
2018-06-08T10:12:28.913Z,97131.34
2018-06-08T10:14:59.940Z,97133.92
2018-06-08T10:17:31.979Z,97135.31
2018-06-08T10:20:03.399Z,97136.72
2018-06-08T10:22:35.912Z,97144.78
2018-06-08T10:25:06.965Z,97142.50
2018-06-08T10:27:37.925Z,97144.84
2018-06-08T10:30:09.033Z,97143.94
2018-06-08T10:32:40.023Z,97142.06
2018-06-08T10:35:12.001Z,97134.84
2018-06-08T10:37:46.178Z,97133.98
2018-06-08T10:40:28.291Z,97130.45
2018-06-08T10:42:59.544Z,97136.13
2018-06-08T10:45:31.279Z,97128.55
2018-06-08T10:48:02.412Z,97126.93
2018-06-08T10:50:33.481Z,97124.91
2018-06-08T10:53:04.640Z,97127.25
2018-06-08T10:55:35.704Z,97121.91
2018-06-08T10:58:06.874Z,97124.51
2018-06-08T11:00:39.367Z,97121.06
2018-06-08T11:03:10.409Z,97116.00
2018-06-08T11:05:41.620Z,97117.74
2018-06-08T11:08:12.581Z,97120.63
2018-06-08T11:10:43.605Z,97122.61
2018-06-08T11:13:14.657Z,97118.73
2018-06-08T11:15:45.750Z,97116.05
2018-06-08T11:18:16.731Z,97114.30
2018-06-08T11:20:48.185Z,97114.98
2018-06-08T11:23:19.453Z,97115.37
2018-06-08T11:25:50.622Z,97116.47
2018-06-08T11:28:21.949Z,97127.20
2018-06-08T11:30:53.180Z,97130.10
2018-06-08T11:33:24.215Z,97125.45
2018-06-08T11:35:55.536Z,97121.65
2018-06-08T11:38:26.571Z,97121.61
2018-06-08T11:40:57.646Z,97120.30
2018-06-08T11:43:29.300Z,97124.40
2018-06-08T11:46:00.504Z,97121.81
2018-06-08T11:48:32.003Z,97118.09
2018-06-08T11:51:03.044Z,97108.36
2018-06-08T11:53:34.187Z,97106.19
2018-06-08T11:56:05.359Z,97097.23
2018-06-08T11:58:36.353Z,97095.23
2018-06-08T12:01:07.312Z,97093.07
2018-06-08T12:03:38.460Z,97093.29
2018-06-08T12:06:09.606Z,97081.84
2018-06-08T12:08:40.777Z,97077.97
2018-06-08T12:11:11.928Z,97075.75
2018-06-08T12:13:43.488Z,97070.70
2018-06-08T12:16:14.541Z,97080.78
2018-06-08T12:18:45.967Z,97075.28
2018-06-08T12:21:17.510Z,97078.43
2018-06-08T12:23:48.729Z,97070.73
2018-06-08T12:26:22.731Z,97080.04
2018-06-08T12:28:58.228Z,97077.55
2018-06-08T12:31:30.416Z,97081.52
2018-06-08T12:34:01.822Z,97079.52
2018-06-08T12:36:33.075Z,97076.68
2018-06-08T12:39:04.850Z,97080.42
2018-06-08T12:41:36.637Z,97071.88
2018-06-08T12:44:09.966Z,97070.59
2018-06-08T12:46:41.279Z,97062.69
2018-06-08T12:49:12.459Z,97062.95
2018-06-08T12:51:43.436Z,97055.28
2018-06-08T12:54:14.513Z,97047.75
2018-06-08T12:56:45.757Z,97040.30
2018-06-08T12:59:16.898Z,97030.23
2018-06-08T13:01:48.025Z,97034.94
2018-06-08T13:04:19.054Z,97032.53
2018-06-08T13:06:50.230Z,97020.91
2018-06-08T13:09:21.439Z,97012.93
2018-06-08T13:11:52.612Z,97025.67
2018-06-08T13:14:24.713Z,97034.02
2018-06-08T13:16:55.728Z,97046.03
2018-06-08T13:19:26.861Z,97056.77
2018-06-08T13:21:58.097Z,97064.57
2018-06-08T13:24:29.576Z,97061.84
2018-06-08T13:27:01.469Z,97052.88
2018-06-08T13:29:36.405Z,97041.52
2018-06-08T13:32:07.805Z,97040.19
2018-06-08T14:08:40.799Z,97073.66
2018-06-08T14:11:14.033Z,97050.02
2018-06-08T14:56:07.205Z,97024.39
2018-06-08T15:01:48.260Z,97020.33
2018-06-08T15:04:19.464Z,97018.08
2018-06-08T15:06:50.814Z,97014.20
2018-06-08T15:09:22.821Z,97005.81
2018-06-08T15:11:55.039Z,97007.98
2018-06-08T15:14:26.705Z,97012.47
2018-06-08T15:16:58.361Z,97011.16
2018-06-08T15:19:30.412Z,97007.66
2018-06-08T15:22:01.694Z,96997.14
2018-06-08T15:24:32.870Z,96990.09
2018-06-08T15:27:04.330Z,96990.20
2018-06-08T15:29:36.070Z,96981.23
2018-06-08T15:32:07.718Z,96977.47
2018-06-08T15:34:39.100Z,96981.91
2018-06-08T15:37:10.709Z,96994.50
2018-06-08T15:39:42.072Z,97002.05
2018-06-08T15:42:13.484Z,97012.05
2018-06-08T15:44:44.837Z,97019.30
2018-06-08T15:47:16.034Z,97020.74
2018-06-08T15:49:47.539Z,97024.51
2018-06-08T15:52:18.900Z,97025.01
2018-06-08T15:54:50.088Z,97034.88
2018-06-08T15:57:21.503Z,97028.52
2018-06-08T15:59:54.053Z,97032.53
2018-06-08T16:02:25.816Z,97039.31
2018-06-08T16:04:57.695Z,97033.67
2018-06-08T16:07:28.951Z,97034.17
2018-06-08T16:10:00.200Z,97036.72
2018-06-08T16:12:31.541Z,97037.03
2018-06-08T16:15:02.698Z,97035.29
2018-06-08T16:17:33.968Z,97037.33
2018-06-08T16:20:05.162Z,97037.78
2018-06-08T16:22:37.352Z,97036.45
2018-06-08T16:25:08.784Z,97040.57
2018-06-08T16:27:39.960Z,97028.48
2018-06-08T16:30:11.122Z,97028.16
2018-06-08T16:32:42.287Z,97030.13
2018-06-08T16:35:15.829Z,97035.74
2018-06-08T16:37:47.071Z,97031.45
2018-06-08T16:40:19.373Z,97031.91
2018-06-08T16:42:51.691Z,97030.79
2018-06-08T16:45:22.892Z,97022.34
2018-06-08T16:47:54.051Z,97021.69
2018-06-08T16:50:26.647Z,97024.97
2018-06-08T16:52:58.282Z,97026.02
2018-06-08T16:55:30.587Z,97018.50
2018-06-08T16:58:01.982Z,97020.42
2018-06-08T17:00:33.426Z,97023.97
2018-06-08T17:03:04.688Z,97023.97
2018-06-08T17:05:36.060Z,97023.88
2018-06-08T17:08:07.189Z,97023.65
2018-06-08T17:10:38.355Z,97021.51
2018-06-08T17:13:09.631Z,97020.70
2018-06-08T17:15:40.690Z,97017.73
2018-06-08T17:18:12.220Z,97025.82
2018-06-08T17:20:43.349Z,97019.31
2018-06-08T17:23:14.573Z,97004.61
2018-06-08T17:25:45.813Z,97001.42
2018-06-08T17:28:17.260Z,96994.69
2018-06-08T17:30:48.392Z,96994.05
2018-06-08T17:33:19.738Z,96994.92
2018-06-08T17:35:51.010Z,96984.99
2018-06-08T18:51:33.925Z,97079.77
2018-06-08T18:54:06.117Z,97076.72
2018-06-08T18:56:38.144Z,97081.11
2018-06-08T18:59:18.692Z,97080.02
2018-06-08T19:01:51.014Z,97075.93
2018-06-08T19:04:23.173Z,97073.83
2018-06-08T19:06:55.216Z,97077.77
2018-06-08T19:09:27.386Z,97074.42
2018-06-08T19:13:04.636Z,97091.55
2018-06-08T19:15:36.567Z,97086.77
2018-06-08T19:18:08.662Z,97088.86
2018-06-08T19:20:40.586Z,97095.56
2018-06-08T19:23:12.572Z,97095.66
2018-06-08T19:25:46.752Z,97105.37
2018-06-08T19:28:18.938Z,97104.09
2018-06-08T19:30:51.141Z,97106.84
2018-06-08T19:33:23.068Z,97118.48
2018-06-08T19:35:57.591Z,97121.59
2018-06-08T19:38:29.700Z,97118.81
2018-06-08T19:41:01.920Z,97118.75
2018-06-08T19:43:34.598Z,97110.94
2018-06-08T19:46:06.481Z,97116.85
2018-06-08T19:48:39.330Z,97122.58
2018-06-08T19:51:11.249Z,97134.84
2018-06-08T19:53:43.396Z,97138.41
2018-06-08T19:56:15.355Z,97137.02
2018-06-08T19:58:47.245Z,97139.47
2018-06-08T20:01:19.060Z,97147.17
2018-06-08T20:03:52.080Z,97153.58
2018-06-08T20:06:26.522Z,97155.77
2018-06-08T20:12:26.724Z,97155.80
2018-06-08T20:15:01.456Z,97158.37
2018-06-08T20:17:33.023Z,97161.78
2018-06-08T20:20:04.934Z,97164.28
2018-06-08T20:22:37.331Z,97163.55
2018-06-08T20:25:09.528Z,97167.75
2018-06-08T20:27:41.409Z,97164.97
2018-06-08T20:30:17.356Z,97163.78
2018-06-08T20:32:49.373Z,97170.47
2018-06-08T20:35:21.482Z,97181.78
2018-06-08T20:37:53.184Z,97186.52
2018-06-08T20:40:25.781Z,97182.59
2018-06-08T20:42:58.254Z,97190.03
2018-06-08T20:45:30.013Z,97191.55
2018-06-08T20:48:02.055Z,97193.46
2018-06-08T20:50:33.420Z,97207.64
2018-06-08T20:53:11.936Z,97206.27
2018-06-08T20:55:50.642Z,97197.66
2018-06-08T20:58:23.389Z,97189.22
2018-06-08T21:00:55.597Z,97193.65
2018-06-08T21:03:27.420Z,97193.87
2018-06-08T21:05:59.806Z,97200.78
2018-06-08T21:08:31.654Z,97202.19
2018-06-08T21:11:03.584Z,97203.75
2018-06-08T21:13:35.478Z,97202.27
2018-06-08T21:16:06.993Z,97202.58
2018-06-08T21:18:38.285Z,97198.72
2018-06-08T21:21:09.610Z,97194.65
2018-06-08T21:23:41.304Z,97199.83
2018-06-08T21:26:13.160Z,97196.16
2018-06-08T21:28:44.912Z,97203.95
2018-06-08T21:31:17.933Z,97204.24
2018-06-08T21:33:49.862Z,97200.72
2018-06-08T21:36:30.790Z,97207.64
2018-06-08T21:39:02.506Z,97205.44
2018-06-08T21:41:34.778Z,97204.63
2018-06-08T21:44:06.758Z,97207.40
2018-06-08T21:46:48.384Z,97195.31
2018-06-08T21:49:22.987Z,97193.53
2018-06-08T21:51:57.093Z,97188.64
2018-06-08T21:54:30.356Z,97193.06
2018-06-08T21:57:02.537Z,97197.42
2018-06-08T21:59:34.540Z,97187.56
2018-06-08T22:02:07.577Z,97187.38
2018-06-08T22:04:39.456Z,97181.77
2018-06-08T22:07:11.833Z,97176.58
2018-06-08T22:09:44.667Z,97170.36
2018-06-08T22:12:16.619Z,97172.61
2018-06-08T22:15:04.523Z,97175.93
2018-06-08T22:17:36.406Z,97173.02
2018-06-08T22:20:08.537Z,97168.16
2018-06-08T22:22:40.593Z,97169.88
2018-06-08T22:25:14.728Z,97169.25
2018-06-08T22:27:46.160Z,97167.73
2018-06-08T22:30:20.194Z,97168.50
2018-06-08T22:32:54.202Z,97164.36
2018-06-08T22:35:26.263Z,97163.05
2018-06-08T22:37:58.512Z,97163.55
2018-06-08T22:40:30.280Z,97156.17
2018-06-08T22:43:01.646Z,97152.02
2018-06-08T22:45:33.741Z,97152.25
2018-06-08T22:48:05.587Z,97149.58
2018-06-08T22:50:44.656Z,97153.41
2018-06-08T22:53:46.895Z,97151.25
2018-06-08T22:56:19.096Z,97150.65
2018-06-08T22:59:35.512Z,97157.92
2018-06-08T23:03:26.062Z,97148.66
2018-06-08T23:05:58.720Z,97141.67
2018-06-08T23:08:30.887Z,97140.92
2018-06-08T23:11:02.725Z,97135.02
2018-06-08T23:13:34.842Z,97132.07
2018-06-08T23:16:06.788Z,97125.75
2018-06-08T23:18:38.096Z,97128.88
2018-06-08T23:21:10.054Z,97133.30
2018-06-08T23:23:41.771Z,97131.48
2018-06-08T23:26:14.031Z,97132.70
2018-06-08T23:28:45.996Z,97133.20
2018-06-08T23:31:18.028Z,97135.19
2018-06-08T23:33:50.150Z,97144.41
2018-06-08T23:36:22.149Z,97151.59
2018-06-08T23:38:59.388Z,97155.99
2018-06-08T23:41:31.720Z,97159.14
2018-06-08T23:44:04.748Z,97164.28
2018-06-08T23:46:38.914Z,97167.87
2018-06-08T23:49:11.856Z,97162.73
2018-06-08T23:51:43.788Z,97160.02
2018-06-08T23:54:15.713Z,97163.55
2018-06-08T23:56:47.699Z,97169.95
2018-06-08T23:59:22.238Z,97174.98
